createdAt,value
2022-10-03T00:01:01.010Z,33.22
2022-10-03T00:03:40.632Z,34.75
2022-10-03T00:06:30.000Z,34.58
2022-10-03T00:08:59.250Z,31.58
2022-10-03T00:11:36.970Z,28.50
2022-10-03T00:14:22.371Z,32.35
2022-10-03T00:17:02.534Z,29.67
2022-10-03T00:19:47.582Z,27.02
2022-10-03T00:22:19.041Z,31.75
2022-10-03T00:25:21.661Z,33.10
2022-10-03T00:28:02.479Z,34.63
2022-10-03T00:30:44.037Z,31.45
2022-10-03T00:33:28.871Z,36.67
2022-10-03T00:36:03.754Z,27.30
2022-10-03T00:38:51.905Z,41.70
2022-10-03T00:41:43.440Z,30.88
2022-10-03T00:44:19.197Z,35.88
2022-10-03T00:46:48.960Z,30.65
2022-10-03T00:49:27.609Z,31.13
2022-10-03T00:52:39.873Z,24.95
2022-10-03T00:55:31.383Z,21.75
2022-10-03T00:58:07.692Z,34.50
2022-10-03T01:00:35.750Z,23.67
2022-10-03T01:03:17.372Z,22.80
2022-10-03T01:05:54.982Z,28.67
2022-10-03T01:08:50.904Z,34.05
2022-10-03T01:11:20.533Z,22.27
2022-10-03T01:14:08.358Z,29.73
2022-10-03T01:16:56.357Z,35.10
2022-10-03T01:20:06.218Z,21.90
2022-10-03T01:22:57.425Z,29.80
2022-10-03T01:25:52.929Z,31.17
2022-10-03T01:28:59.285Z,23.88
2022-10-03T01:31:39.005Z,30.67
2022-10-03T01:34:46.921Z,23.90
2022-10-03T01:37:29.577Z,19.65
2022-10-03T01:40:18.105Z,26.42
2022-10-03T01:43:12.006Z,13.00
2022-10-03T01:45:49.703Z,27.05
2022-10-03T01:48:26.928Z,23.88
2022-10-03T01:51:16.883Z,31.73
2022-10-03T01:54:15.075Z,18.63
2022-10-03T01:56:50.645Z,29.92
2022-10-03T01:59:35.331Z,24.67
2022-10-03T02:02:37.000Z,26.00
2022-10-03T02:05:10.069Z,22.25
2022-10-03T02:08:01.052Z,23.80
2022-10-03T02:10:33.522Z,23.80
2022-10-03T02:13:18.081Z,21.30
2022-10-03T02:16:08.141Z,21.83
2022-10-03T02:18:56.169Z,24.63
2022-10-03T02:21:27.000Z,25.40
2022-10-03T02:24:15.309Z,26.67
2022-10-03T02:27:13.757Z,24.27
2022-10-03T02:29:46.505Z,38.58
2022-10-03T02:32:42.105Z,29.02
2022-10-03T02:35:10.591Z,21.13
2022-10-03T02:37:40.266Z,21.73
2022-10-03T02:40:37.996Z,27.60
2022-10-03T02:43:20.296Z,20.13
2022-10-03T02:46:14.703Z,22.13
2022-10-03T02:49:04.248Z,19.88
2022-10-03T02:51:49.093Z,18.25
2022-10-03T02:54:37.320Z,24.08
2022-10-03T02:57:29.550Z,20.27
2022-10-03T02:59:59.215Z,23.42
2022-10-03T03:02:34.725Z,21.30
2022-10-03T03:05:07.015Z,27.20
2022-10-03T03:10:42.632Z,24.40
2022-10-03T03:13:30.869Z,24.95
2022-10-03T03:16:23.073Z,15.25
2022-10-03T03:19:23.584Z,22.52
2022-10-03T03:22:20.677Z,23.25
2022-10-03T03:24:56.173Z,29.13
2022-10-03T03:27:54.016Z,27.65
2022-10-03T03:30:32.495Z,24.95
2022-10-03T03:33:26.537Z,18.30
2022-10-03T03:36:32.629Z,17.70
2022-10-03T03:39:20.488Z,21.25
2022-10-03T03:41:50.594Z,31.08
2022-10-03T03:44:41.809Z,26.30
2022-10-03T03:47:13.902Z,22.63
2022-10-03T03:50:01.569Z,23.63
2022-10-03T03:52:59.151Z,25.92
2022-10-03T03:55:54.412Z,19.45
2022-10-03T03:58:25.265Z,20.15
2022-10-03T04:01:24.282Z,16.92
2022-10-03T04:03:53.957Z,13.52
2022-10-03T04:06:35.060Z,32.33
2022-10-03T04:09:39.302Z,32.47
2022-10-03T04:12:26.210Z,17.75
2022-10-03T04:15:04.714Z,28.05
2022-10-03T04:18:27.678Z,14.98
2022-10-03T04:21:21.505Z,22.92
2022-10-03T04:24:00.196Z,22.20
2022-10-03T04:26:59.738Z,24.50
2022-10-03T04:29:56.495Z,27.67
2022-10-03T04:33:01.147Z,25.65
2022-10-03T04:35:46.680Z,20.52
2022-10-03T04:38:32.292Z,19.02
2022-10-03T04:41:27.779Z,17.50
2022-10-03T04:44:21.401Z,18.70
2022-10-03T04:47:17.273Z,36.40
2022-10-03T04:49:58.377Z,30.77
2022-10-03T04:52:39.633Z,25.95
2022-10-03T04:55:16.130Z,25.45
2022-10-03T04:58:04.700Z,24.50
2022-10-03T05:00:48.673Z,22.90
2022-10-03T05:04:11.051Z,25.42
2022-10-03T05:06:56.048Z,18.73
2022-10-03T05:09:52.286Z,24.42
2022-10-03T05:12:56.199Z,26.58
2022-10-03T05:15:41.762Z,34.15
2022-10-03T05:18:24.639Z,25.25
2022-10-03T05:21:14.713Z,19.98
2022-10-03T05:24:03.141Z,25.60
2022-10-03T05:26:51.088Z,23.98
2022-10-03T05:29:21.890Z,29.00
2022-10-03T05:32:17.225Z,24.67
2022-10-03T05:35:21.244Z,23.88
2022-10-03T05:38:00.465Z,26.05
2022-10-03T05:40:30.157Z,23.20
2022-10-03T05:43:28.481Z,25.23
2022-10-03T05:46:06.264Z,26.65
2022-10-03T05:48:50.292Z,26.35
2022-10-03T05:51:43.274Z,17.15
2022-10-03T05:54:19.176Z,25.70
2022-10-03T05:56:56.606Z,25.80
2022-10-03T05:59:43.300Z,21.25
2022-10-03T06:02:22.268Z,24.02
2022-10-03T06:05:04.043Z,26.85
2022-10-03T06:07:48.158Z,21.65
2022-10-03T06:10:44.331Z,18.85
2022-10-03T06:13:26.832Z,21.10
2022-10-03T06:16:11.548Z,24.70
2022-10-03T06:19:12.199Z,26.73
2022-10-03T06:22:08.413Z,25.55
2022-10-03T06:25:02.728Z,28.58
2022-10-03T06:28:08.253Z,22.05
2022-10-03T06:30:53.463Z,17.65
2022-10-03T06:33:32.253Z,26.42
2022-10-03T06:36:11.077Z,32.38
2022-10-03T06:39:15.409Z,25.80
2022-10-03T06:42:19.658Z,19.38
2022-10-03T06:44:46.156Z,24.60
2022-10-03T06:47:49.472Z,23.55
2022-10-03T06:50:27.477Z,22.75
2022-10-03T06:53:02.178Z,23.58
2022-10-03T06:55:56.257Z,24.08
2022-10-03T06:58:47.051Z,23.88
2022-10-03T07:01:35.126Z,27.52
2022-10-03T07:04:51.437Z,17.23
2022-10-03T07:07:39.818Z,21.60
2022-10-03T07:10:18.383Z,26.88
2022-10-03T07:12:57.128Z,22.27
2022-10-03T07:16:02.271Z,16.42
2022-10-03T07:18:56.461Z,21.65
2022-10-03T07:21:48.701Z,24.67
2022-10-03T07:24:26.077Z,27.05
2022-10-03T07:27:16.960Z,23.95
2022-10-03T07:30:10.905Z,21.92
2022-10-03T07:33:19.400Z,20.10
2022-10-03T07:36:41.844Z,16.98
2022-10-03T07:39:30.766Z,21.70
2022-10-03T07:42:12.502Z,22.85
2022-10-03T07:45:02.046Z,20.90
2022-10-03T07:47:34.669Z,26.63
2022-10-03T07:50:19.871Z,26.48
2022-10-03T07:53:10.939Z,22.35
2022-10-03T07:55:50.568Z,20.23
2022-10-03T07:58:42.572Z,22.95
2022-10-03T08:01:25.941Z,28.70
2022-10-03T08:04:30.948Z,24.90
2022-10-03T08:07:22.302Z,15.88
2022-10-03T08:10:20.178Z,20.13
2022-10-03T08:13:20.945Z,22.58
2022-10-03T08:15:59.923Z,20.83
2022-10-03T08:18:45.220Z,18.17
2022-10-03T08:21:50.440Z,21.17
2022-10-03T08:24:38.770Z,23.95
2022-10-03T08:27:08.296Z,22.58
2022-10-03T08:30:14.458Z,17.48
2022-10-03T08:33:00.552Z,20.45
2022-10-03T08:36:04.156Z,22.17
2022-10-03T08:38:44.810Z,20.58
2022-10-03T08:41:23.596Z,28.40
2022-10-03T08:44:05.585Z,25.60
2022-10-03T08:46:50.881Z,19.27
2022-10-03T08:49:34.204Z,19.02
2022-10-03T08:52:31.761Z,19.63
2022-10-03T08:55:19.854Z,19.92
2022-10-03T08:58:17.425Z,22.00
2022-10-03T09:01:05.882Z,25.02
2022-10-03T09:03:53.856Z,20.45
2022-10-03T09:06:52.774Z,18.05
2022-10-03T09:09:35.663Z,25.00
2022-10-03T09:12:42.783Z,20.70
2022-10-03T09:15:31.256Z,26.33
2022-10-03T09:18:05.373Z,24.05
2022-10-03T09:21:26.350Z,20.85
2022-10-03T09:24:20.626Z,17.67
2022-10-03T09:27:00.413Z,21.98
2022-10-03T09:29:55.900Z,24.00
2022-10-03T09:32:43.709Z,22.45
2022-10-03T09:35:38.059Z,15.82
2022-10-03T09:38:14.020Z,20.50
2022-10-03T09:40:51.253Z,22.92
2022-10-03T09:43:29.874Z,21.92
2022-10-03T09:46:15.178Z,24.85
2022-10-03T09:49:04.087Z,21.85
2022-10-03T09:51:43.768Z,14.75
2022-10-03T09:55:07.894Z,16.15
2022-10-03T09:58:16.596Z,28.27
2022-10-03T10:01:33.398Z,18.80
2022-10-03T10:04:43.287Z,18.58
2022-10-03T10:07:25.577Z,23.27
2022-10-03T10:10:10.883Z,21.08
2022-10-03T10:13:06.195Z,18.50
2022-10-03T10:15:38.902Z,20.60
2022-10-03T10:18:42.852Z,18.00
2022-10-03T10:21:24.557Z,20.45
2022-10-03T10:23:55.852Z,20.27
2022-10-03T10:26:54.049Z,23.55
2022-10-03T10:29:47.073Z,20.00
2022-10-03T10:32:41.653Z,21.67
2022-10-03T10:35:51.872Z,13.88
2022-10-03T10:38:39.947Z,22.30
2022-10-03T10:41:43.941Z,27.65
2022-10-03T10:44:47.931Z,14.18
2022-10-03T10:47:36.868Z,17.90
2022-10-03T10:50:25.274Z,16.63
2022-10-03T10:53:20.245Z,14.93
2022-10-03T10:56:07.782Z,22.02
2022-10-03T10:58:40.558Z,17.38
2022-10-03T11:01:22.270Z,14.07
2022-10-03T11:04:24.256Z,16.25
2022-10-03T11:07:29.052Z,16.60
2022-10-03T11:10:26.683Z,14.07
2022-10-03T11:13:35.424Z,18.25
2022-10-03T11:16:14.238Z,19.88
2022-10-03T11:18:52.909Z,20.55
2022-10-03T11:21:52.770Z,13.15
2022-10-03T11:24:34.606Z,12.65
2022-10-03T11:27:38.187Z,11.63
2022-10-03T11:30:19.616Z,9.93
2022-10-03T11:33:01.941Z,9.05
2022-10-03T11:36:05.177Z,7.63
2022-10-03T11:38:36.358Z,11.98
2022-10-03T11:41:33.399Z,15.07
2022-10-03T11:44:17.493Z,14.02
2022-10-03T11:47:19.236Z,14.40
2022-10-03T11:50:23.409Z,23.87
2022-10-03T11:52:59.841Z,13.13
2022-10-03T11:55:35.111Z,23.92
2022-10-03T11:58:41.540Z,17.15
2022-10-03T12:01:38.275Z,15.82
2022-10-03T12:04:46.208Z,19.58
2022-10-03T12:07:58.723Z,18.27
2022-10-03T12:10:36.037Z,15.60
2022-10-03T12:13:08.833Z,18.45
2022-10-03T12:15:45.972Z,10.98
2022-10-03T12:18:28.180Z,17.83
2022-10-03T12:24:12.819Z,10.25
2022-10-03T12:26:44.382Z,13.10
2022-10-03T12:29:13.403Z,15.23
2022-10-03T12:32:09.207Z,15.93
2022-10-03T12:34:42.371Z,12.32
2022-10-03T12:37:37.017Z,13.10
2022-10-03T12:40:17.774Z,17.10
2022-10-03T12:43:05.971Z,11.93
2022-10-03T12:45:47.568Z,13.70
2022-10-03T12:48:26.393Z,9.10
2022-10-03T12:51:08.882Z,15.43
2022-10-03T12:53:48.360Z,10.65
2022-10-03T12:56:37.337Z,12.60
2022-10-03T12:59:03.864Z,13.05
2022-10-03T13:01:52.209Z,9.75
2022-10-03T13:04:40.824Z,11.38
2022-10-03T13:07:37.329Z,16.52
2022-10-03T13:10:12.900Z,10.18
2022-10-03T13:12:46.083Z,4.75
2022-10-03T13:15:18.915Z,12.00
2022-10-03T13:18:10.542Z,10.05
2022-10-03T13:20:45.674Z,9.45
2022-10-03T13:23:21.240Z,5.72
2022-10-03T13:26:09.819Z,9.60
2022-10-03T13:29:11.726Z,8.25
2022-10-03T13:31:45.824Z,10.65
2022-10-03T13:34:20.117Z,12.52
2022-10-03T13:37:13.688Z,9.63
2022-10-03T13:39:46.889Z,11.63
2022-10-03T13:42:20.397Z,7.03
2022-10-03T13:44:59.238Z,8.95
2022-10-03T13:47:25.756Z,11.88
2022-10-03T13:49:58.939Z,11.82
2022-10-03T13:52:55.465Z,13.45
2022-10-03T13:55:56.281Z,13.82
2022-10-03T13:59:05.331Z,17.60
2022-10-03T14:02:04.349Z,12.77
2022-10-03T14:04:49.268Z,11.02
2022-10-03T14:07:18.848Z,14.57
2022-10-03T14:10:14.580Z,12.52
2022-10-03T14:12:56.275Z,19.13
2022-10-03T14:15:41.887Z,11.43
2022-10-03T14:18:14.201Z,10.77
2022-10-03T14:21:14.725Z,13.52
2022-10-03T14:23:51.345Z,12.05
2022-10-03T14:26:25.029Z,21.33
2022-10-03T14:29:06.481Z,9.13
2022-10-03T14:31:43.099Z,15.77
2022-10-03T14:34:41.272Z,17.83
2022-10-03T14:37:25.376Z,12.70
2022-10-03T14:40:01.216Z,17.00
2022-10-03T14:42:34.970Z,14.35
2022-10-03T14:45:09.971Z,19.38
2022-10-03T14:47:41.171Z,13.52
2022-10-03T14:50:20.550Z,16.87
2022-10-03T14:52:54.508Z,10.60
2022-10-03T14:55:29.891Z,15.98
2022-10-03T14:58:10.592Z,16.08
2022-10-03T15:00:39.033Z,11.32
2022-10-03T15:03:38.839Z,13.13
2022-10-03T15:06:35.597Z,12.23
2022-10-03T15:09:11.457Z,10.93
2022-10-03T15:11:47.881Z,17.48
2022-10-03T15:14:15.293Z,18.10
2022-10-03T15:16:54.017Z,16.30
2022-10-03T15:19:44.199Z,15.57
2022-10-03T15:22:42.432Z,14.10
2022-10-03T15:25:14.082Z,14.57
2022-10-03T15:27:43.917Z,18.45
2022-10-03T15:30:21.779Z,21.90
2022-10-03T15:32:50.469Z,14.85
2022-10-03T15:35:27.382Z,14.70
2022-10-03T15:38:10.439Z,18.27
2022-10-03T15:40:39.744Z,14.57
2022-10-03T15:43:16.032Z,12.57
2022-10-03T15:45:44.267Z,18.05
2022-10-03T15:48:16.606Z,11.48
2022-10-03T15:50:51.552Z,14.98
2022-10-03T15:53:38.336Z,17.13
2022-10-03T15:56:26.501Z,20.17
2022-10-03T15:58:56.273Z,20.58
2022-10-03T16:01:32.089Z,15.98
2022-10-03T16:04:04.701Z,13.48
2022-10-03T16:07:00.229Z,21.73
2022-10-03T16:09:46.313Z,10.02
2022-10-03T16:12:34.217Z,13.27
2022-10-03T16:15:20.745Z,13.82
2022-10-03T16:17:59.052Z,20.73
2022-10-03T16:20:37.577Z,14.18
2022-10-03T16:23:20.969Z,14.80
2022-10-03T16:25:56.667Z,16.42
2022-10-03T16:28:30.865Z,18.75
2022-10-03T16:31:05.668Z,11.35
2022-10-03T16:33:37.553Z,13.55
2022-10-03T16:36:09.368Z,16.02
2022-10-03T16:38:56.950Z,14.15
2022-10-03T16:41:33.517Z,12.32
2022-10-03T16:44:23.265Z,11.30
2022-10-03T16:46:52.567Z,19.75
2022-10-03T16:49:44.386Z,14.45
2022-10-03T16:52:14.896Z,16.67
2022-10-03T16:54:43.791Z,16.05
2022-10-03T16:57:19.468Z,12.93
2022-10-03T16:59:52.164Z,19.33
2022-10-03T17:02:24.447Z,12.05
2022-10-03T17:05:07.796Z,11.98
2022-10-03T17:07:45.094Z,11.35
2022-10-03T17:10:38.119Z,10.20
2022-10-03T17:13:31.414Z,11.88
2022-10-03T17:16:06.316Z,11.63
2022-10-03T17:18:44.612Z,10.48
2022-10-03T17:21:23.943Z,15.57
2022-10-03T17:24:07.099Z,10.27
2022-10-03T17:26:40.921Z,13.93
2022-10-03T17:29:33.546Z,11.35
2022-10-03T17:32:21.084Z,8.88
2022-10-03T17:34:59.115Z,10.88
2022-10-03T17:37:28.833Z,10.07
2022-10-03T17:40:22.117Z,13.15
2022-10-03T17:42:57.348Z,14.20
2022-10-03T17:45:55.992Z,10.25
2022-10-03T17:48:57.483Z,11.43
2022-10-03T17:51:36.734Z,13.43
2022-10-03T17:54:11.955Z,11.95
2022-10-03T17:56:45.364Z,8.77
2022-10-03T17:59:19.838Z,10.25
2022-10-03T18:01:53.937Z,20.55
2022-10-03T18:04:30.473Z,15.63
2022-10-03T18:07:06.057Z,15.48
2022-10-03T18:09:40.915Z,16.88
2022-10-03T18:12:22.295Z,9.35
2022-10-03T18:15:08.313Z,14.25
2022-10-03T18:17:55.969Z,17.70
2022-10-03T18:20:35.707Z,18.30
2022-10-03T18:23:08.525Z,9.77
2022-10-03T18:28:59.112Z,12.20
2022-10-03T18:31:27.872Z,15.73
2022-10-03T18:33:59.945Z,18.38
2022-10-03T18:36:31.609Z,16.60
2022-10-03T18:39:03.699Z,15.68
2022-10-03T18:41:30.477Z,18.42
2022-10-03T18:44:00.493Z,16.60
2022-10-03T18:46:40.828Z,15.40
2022-10-03T18:49:34.478Z,16.65
2022-10-03T18:52:19.487Z,25.05
2022-10-03T18:54:59.594Z,23.42
2022-10-03T18:57:32.846Z,24.80
2022-10-03T19:00:20.570Z,18.20
2022-10-03T19:02:57.203Z,24.42
2022-10-03T19:05:30.086Z,21.52
2022-10-03T19:08:11.332Z,20.30
2022-10-03T19:11:12.260Z,17.80
2022-10-03T19:13:53.816Z,24.38
2022-10-03T19:16:43.176Z,25.35
2022-10-03T19:19:19.685Z,14.65
2022-10-03T19:21:48.082Z,15.23
2022-10-03T19:24:34.491Z,19.70
2022-10-03T19:27:15.707Z,23.75
2022-10-03T19:29:47.127Z,19.02
2022-10-03T19:32:32.329Z,17.92
2022-10-03T19:35:04.090Z,21.27
2022-10-03T19:37:30.704Z,12.00
2022-10-03T19:39:59.294Z,11.38
2022-10-03T19:42:47.521Z,12.45
2022-10-03T19:45:16.871Z,17.10
2022-10-03T19:47:52.303Z,12.63
2022-10-03T19:50:28.528Z,16.67
2022-10-03T19:52:56.233Z,14.55
2022-10-03T19:55:37.251Z,15.13
2022-10-03T19:58:24.327Z,18.60
2022-10-03T20:00:59.873Z,18.23
2022-10-03T20:03:36.834Z,13.02
2022-10-03T20:06:08.989Z,15.55
2022-10-03T20:11:42.656Z,18.77
2022-10-03T20:14:26.767Z,15.60
2022-10-03T20:17:02.188Z,16.27
2022-10-03T20:19:56.251Z,20.25
2022-10-03T20:22:26.422Z,18.65
2022-10-03T20:24:53.641Z,19.17
2022-10-03T20:27:32.847Z,16.17
2022-10-03T20:30:20.477Z,16.13
2022-10-03T20:32:48.578Z,18.55
2022-10-03T20:35:29.143Z,16.45
2022-10-03T20:38:05.910Z,13.20
2022-10-03T20:40:45.625Z,13.07
2022-10-03T20:43:39.099Z,19.30
2022-10-03T20:46:17.028Z,20.77
2022-10-03T20:48:53.042Z,17.60
2022-10-03T20:51:23.890Z,16.70
2022-10-03T20:53:55.912Z,11.65
2022-10-03T20:56:32.629Z,15.68
2022-10-03T20:59:02.241Z,16.55
2022-10-03T21:01:31.898Z,21.60
2022-10-03T21:04:10.673Z,16.60
2022-10-03T21:07:06.398Z,23.48
2022-10-03T21:09:41.622Z,20.27
2022-10-03T21:12:20.314Z,20.35
2022-10-03T21:14:52.998Z,17.60
2022-10-03T21:17:20.945Z,14.70
2022-10-03T21:19:59.056Z,18.02
2022-10-03T21:22:29.601Z,21.92
2022-10-03T21:25:04.200Z,18.65
2022-10-03T21:27:33.885Z,14.27
2022-10-03T21:30:36.914Z,14.20
2022-10-03T21:33:11.209Z,23.00
2022-10-03T21:35:41.109Z,22.02
2022-10-03T21:38:23.333Z,17.83
2022-10-03T21:41:08.865Z,15.82
2022-10-03T21:43:53.972Z,22.73
2022-10-03T21:46:27.368Z,20.13
2022-10-03T21:48:59.975Z,17.70
2022-10-03T21:51:44.705Z,13.48
2022-10-03T21:54:33.917Z,13.57
2022-10-03T21:57:28.578Z,15.30
2022-10-03T22:00:17.762Z,17.75
2022-10-03T22:02:53.225Z,28.10
2022-10-03T22:05:45.233Z,17.17
2022-10-03T22:08:22.926Z,19.67
2022-10-03T22:11:17.514Z,14.32
2022-10-03T22:14:07.912Z,14.20
2022-10-03T22:17:04.777Z,16.42
2022-10-03T22:19:31.333Z,17.67
2022-10-03T22:22:19.146Z,17.70
2022-10-03T22:25:04.628Z,19.38
2022-10-03T22:27:50.016Z,16.85
2022-10-03T22:30:19.894Z,17.17
2022-10-03T22:33:03.352Z,16.27
2022-10-03T22:35:45.442Z,26.17
2022-10-03T22:38:12.397Z,13.88
2022-10-03T22:40:40.652Z,16.58
2022-10-03T22:43:08.741Z,14.52
2022-10-03T22:45:41.609Z,24.17
2022-10-03T22:48:25.598Z,23.52
2022-10-03T22:50:54.266Z,27.20
2022-10-03T22:53:26.094Z,21.27
2022-10-03T22:55:58.514Z,17.88
2022-10-03T22:58:29.258Z,14.73
2022-10-03T23:00:59.677Z,17.02
2022-10-03T23:03:32.422Z,18.33
2022-10-03T23:06:01.980Z,18.00
2022-10-03T23:08:59.133Z,21.17
2022-10-03T23:11:29.675Z,21.98
2022-10-03T23:14:01.426Z,19.20
2022-10-03T23:17:22.966Z,16.90
2022-10-03T23:19:55.314Z,11.63
2022-10-03T23:22:27.143Z,20.20
2022-10-03T23:25:03.329Z,23.52
2022-10-03T23:27:33.028Z,14.85
2022-10-03T23:30:11.953Z,16.95
2022-10-03T23:32:47.573Z,28.15
2022-10-03T23:35:36.118Z,17.80
2022-10-03T23:38:31.810Z,20.48
2022-10-03T23:41:03.122Z,19.52
2022-10-03T23:43:37.994Z,21.00
2022-10-03T23:46:12.913Z,28.88
2022-10-03T23:48:52.016Z,13.07
2022-10-03T23:51:23.571Z,22.00
2022-10-03T23:53:53.450Z,20.02
2022-10-03T23:56:25.494Z,20.45
2022-10-03T23:59:15.618Z,24.95
